Terminal Aerodrome Forecast
Issued by NWS

Home | Current Version | Previous Version | Graphics & Text | Print | Product List | Glossary On
Versions: 1 2 3 4 5 6 7 8 9 10 11 12 13
924
FTUS43 KIWX 210828 AAA
TAFSBN
TAF AMD
KSBN 210828Z 2108/2206 31012KT P6SM SCT030 OVC035
      TEMPO 2108/2112 BKN030
     FM211200 32012KT P6SM BKN025 OVC035
     FM211900 33013KT P6SM SCT025 BKN035
     FM220100 02005KT P6SM SCT150=

USA.gov is the U.S. government's official web portal to all federal, state and local government web resources and services.